Time;durP1;ratioP1;P1;durP2;ratioP2;P2;SDS_P1;SDS_P2;PMS_P1;PMS_P2;Temp;Humidity;BMP_temperature;BMP_pressure;BME280_temperature;BME280_humidity;BME280_pressure;Samples;Min_cycle;Max_cycle;Signal;HPM_P1;HPM_P2
2021/09/23 00:01:39;;;;;;;7.20;5.38;;;12.60;66.20;;;;;;5046451;28;20040;-39
2021/09/23 00:04:34;;;;;;;12.38;6.30;;;12.50;66.40;;;;;;5046379;28;20265;-39
2021/09/23 00:07:18;;;;;;;9.00;5.95;;;12.60;66.50;;;;;;5046370;28;20052;-39
2021/09/23 00:10:03;;;;;;;9.05;6.25;;;12.60;66.50;;;;;;5046326;28;20087;-39
2021/09/23 00:12:48;;;;;;;8.48;5.55;;;12.60;66.60;;;;;;5046446;28;20071;-39
2021/09/23 00:15:34;;;;;;;8.95;5.75;;;12.60;66.60;;;;;;5046206;28;20032;-39
2021/09/23 00:18:19;;;;;;;10.35;5.82;;;12.60;66.50;;;;;;5045309;28;20056;-39
2021/09/23 00:21:04;;;;;;;14.30;6.10;;;12.50;66.50;;;;;;5046612;28;20068;-39
2021/09/23 00:23:50;;;;;;;9.02;5.30;;;12.50;66.40;;;;;;5046707;28;20043;-39
2021/09/23 00:26:34;;;;;;;10.20;5.90;;;12.50;66.40;;;;;;5045058;28;20052;-39
2021/09/23 00:29:19;;;;;;;10.50;6.10;;;12.40;66.40;;;;;;5046546;28;20079;-39
2021/09/23 00:32:03;;;;;;;9.30;5.97;;;12.40;66.40;;;;;;5045902;28;20033;-39
2021/09/23 00:34:47;;;;;;;10.65;6.00;;;12.40;66.50;;;;;;5045835;28;20355;-39
2021/09/23 00:37:32;;;;;;;9.90;5.85;;;12.40;66.60;;;;;;5045811;28;20095;-39
2021/09/23 00:40:17;;;;;;;9.50;5.65;;;12.40;66.60;;;;;;5045934;28;20033;-39
2021/09/23 00:43:01;;;;;;;7.68;5.57;;;12.40;66.50;;;;;;5045641;28;20044;-39
2021/09/23 00:45:46;;;;;;;8.77;5.90;;;12.40;66.30;;;;;;5045730;28;20036;-39
2021/09/23 00:48:30;;;;;;;8.65;5.57;;;12.40;66.50;;;;;;5045676;28;20176;-39
2021/09/23 00:51:17;;;;;;;8.13;5.95;;;12.40;66.30;;;;;;5045415;28;20356;-39
2021/09/23 00:54:01;;;;;;;9.27;5.88;;;12.40;66.30;;;;;;5045992;28;20028;-39
2021/09/23 00:56:46;;;;;;;9.27;6.00;;;12.40;66.30;;;;;;5045613;28;20087;-39
2021/09/23 00:59:30;;;;;;;7.95;5.78;;;12.40;66.20;;;;;;5045573;28;20087;-39
2021/09/23 01:02:15;;;;;;;8.88;5.50;;;12.40;66.20;;;;;;5045814;28;20075;-38
2021/09/23 01:04:59;;;;;;;6.95;5.15;;;12.30;66.10;;;;;;5045249;28;20032;-39
2021/09/23 01:07:45;;;;;;;8.45;5.38;;;12.30;66.10;;;;;;5045566;28;20040;-39
2021/09/23 01:10:29;;;;;;;9.48;5.50;;;12.30;66.20;;;;;;5045177;28;20036;-39
2021/09/23 01:13:14;;;;;;;9.07;5.30;;;12.30;66.20;;;;;;5045279;28;20440;-39
2021/09/23 01:15:59;;;;;;;11.55;5.70;;;12.30;66.10;;;;;;5045209;28;20090;-39
2021/09/23 01:18:43;;;;;;;8.20;5.82;;;12.20;66.10;;;;;;5045159;28;20032;-39
2021/09/23 01:21:27;;;;;;;8.90;5.70;;;12.30;66.10;;;;;;5045080;28;20063;-39
2021/09/23 01:24:12;;;;;;;9.43;5.50;;;12.30;66.00;;;;;;5044856;28;20297;-39
2021/09/23 01:26:56;;;;;;;7.90;5.45;;;12.20;65.80;;;;;;5045392;28;20344;-39
2021/09/23 01:29:40;;;;;;;9.05;4.88;;;12.30;65.90;;;;;;5044963;28;20032;-39
2021/09/23 01:32:25;;;;;;;8.50;5.53;;;12.20;65.90;;;;;;5045241;28;20045;-39
2021/09/23 01:35:09;;;;;;;7.78;5.10;;;12.10;65.90;;;;;;5044986;28;20037;-39
2021/09/23 01:37:53;;;;;;;9.55;5.32;;;12.20;65.40;;;;;;5044535;28;20097;-39
2021/09/23 01:40:37;;;;;;;7.60;5.18;;;12.20;65.30;;;;;;5044658;28;20028;-39
2021/09/23 01:43:22;;;;;;;8.32;5.60;;;12.20;65.30;;;;;;5044418;28;20049;-39
2021/09/23 01:46:07;;;;;;;9.88;5.15;;;12.20;65.20;;;;;;5044466;28;20032;-38
2021/09/23 01:48:51;;;;;;;7.70;4.88;;;12.10;65.20;;;;;;5044359;28;20224;-39
2021/09/23 01:51:35;;;;;;;6.57;4.70;;;12.10;65.30;;;;;;5044280;28;20033;-39
2021/09/23 01:54:19;;;;;;;7.90;5.32;;;11.90;65.60;;;;;;5044270;28;20124;-39
2021/09/23 01:57:04;;;;;;;6.82;4.70;;;11.90;65.60;;;;;;5044799;28;20244;-39
2021/09/23 01:59:48;;;;;;;8.48;4.90;;;12.00;65.40;;;;;;5044427;28;20087;-38
2021/09/23 02:02:32;;;;;;;7.32;4.95;;;11.90;65.50;;;;;;5044287;28;20032;-39
2021/09/23 02:05:17;;;;;;;7.20;4.85;;;11.90;65.60;;;;;;5044672;28;20140;-39
2021/09/23 02:08:01;;;;;;;8.18;5.40;;;12.00;65.30;;;;;;5044088;28;20028;-39
2021/09/23 02:10:45;;;;;;;9.77;4.93;;;12.00;65.20;;;;;;5044074;28;20067;-39
2021/09/23 02:13:29;;;;;;;6.53;4.85;;;11.90;65.30;;;;;;5043942;28;20037;-39
2021/09/23 02:16:14;;;;;;;7.88;4.93;;;11.90;65.50;;;;;;5044048;28;20355;-39
2021/09/23 02:18:58;;;;;;;8.65;5.20;;;11.90;65.50;;;;;;5043914;28;20260;-39
2021/09/23 02:21:42;;;;;;;9.80;5.22;;;11.80;65.40;;;;;;5043807;28;20071;-38
2021/09/23 02:24:26;;;;;;;7.43;5.13;;;11.90;65.40;;;;;;5043753;28;20094;-39
2021/09/23 02:27:11;;;;;;;7.90;5.05;;;11.80;65.60;;;;;;5043846;28;20033;-39
2021/09/23 02:29:55;;;;;;;7.32;4.78;;;11.70;65.70;;;;;;5044345;28;20025;-39
2021/09/23 02:32:39;;;;;;;7.22;5.10;;;11.60;65.80;;;;;;5043984;28;20108;-39
2021/09/23 02:35:24;;;;;;;9.38;5.45;;;11.60;65.90;;;;;;5044153;28;20083;-39
2021/09/23 02:38:08;;;;;;;9.30;4.93;;;11.60;65.80;;;;;;5043782;28;20071;-39
2021/09/23 02:40:52;;;;;;;7.35;5.40;;;11.70;65.60;;;;;;5043653;28;20079;-38
2021/09/23 02:43:36;;;;;;;7.80;4.72;;;11.80;65.50;;;;;;5043981;28;20225;-39
2021/09/23 02:46:20;;;;;;;9.13;4.68;;;11.70;65.60;;;;;;5043618;28;20032;-38
2021/09/23 02:49:05;;;;;;;7.68;5.05;;;11.60;65.60;;;;;;5042902;28;20067;-39
2021/09/23 02:51:49;;;;;;;7.00;4.70;;;11.50;66.00;;;;;;5043577;28;20036;-38
2021/09/23 02:54:33;;;;;;;7.53;4.95;;;11.50;66.00;;;;;;5043853;28;20037;-39
2021/09/23 02:57:18;;;;;;;7.35;5.18;;;11.60;65.80;;;;;;5043455;28;20258;-39
2021/09/23 03:00:04;;;;;;;9.52;5.15;;;11.50;65.80;;;;;;5043929;28;20090;-39
2021/09/23 03:02:48;;;;;;;8.10;4.75;;;11.50;66.00;;;;;;5043552;28;20070;-38
2021/09/23 03:05:33;;;;;;;7.68;4.90;;;11.40;66.20;;;;;;5043510;28;20109;-39
2021/09/23 03:08:17;;;;;;;7.10;4.80;;;11.50;66.20;;;;;;5043817;28;20033;-39
2021/09/23 03:11:01;;;;;;;6.18;4.65;;;11.40;66.30;;;;;;5043733;28;20079;-38
2021/09/23 03:13:45;;;;;;;9.25;4.57;;;11.40;66.40;;;;;;5043693;28;20312;-39
2021/09/23 03:16:30;;;;;;;7.10;4.80;;;11.40;66.40;;;;;;5043602;28;20355;-39
2021/09/23 03:19:14;;;;;;;7.50;5.03;;;11.40;66.60;;;;;;5043701;28;20035;-38
2021/09/23 03:21:58;;;;;;;8.43;5.20;;;11.40;66.60;;;;;;5043190;28;20028;-39
2021/09/23 03:24:43;;;;;;;8.88;5.30;;;11.40;66.70;;;;;;5043193;28;20391;-39
2021/09/23 03:27:28;;;;;;;9.77;5.05;;;11.30;66.80;;;;;;5043224;28;20068;-39
2021/09/23 03:30:12;;;;;;;8.05;4.82;;;11.30;66.70;;;;;;5043500;28;20257;-39
2021/09/23 03:32:56;;;;;;;8.07;4.90;;;11.40;66.50;;;;;;5043693;28;20432;-39
2021/09/23 03:35:40;;;;;;;7.10;4.60;;;11.40;66.40;;;;;;5043312;28;20395;-39
2021/09/23 03:38:24;;;;;;;8.35;5.18;;;11.40;66.40;;;;;;5043670;28;20036;-39
2021/09/23 03:41:09;;;;;;;8.70;5.00;;;11.40;66.40;;;;;;5043072;28;20036;-39
2021/09/23 03:43:53;;;;;;;10.38;5.07;;;11.30;66.60;;;;;;5043119;28;20068;-39
2021/09/23 03:46:37;;;;;;;7.57;5.07;;;11.40;66.50;;;;;;5042198;28;20041;-38
2021/09/23 03:49:22;;;;;;;8.50;4.90;;;11.30;66.40;;;;;;5043015;28;20356;-39
2021/09/23 03:52:07;;;;;;;7.68;4.70;;;11.30;66.40;;;;;;5043228;28;20036;-39
2021/09/23 03:54:51;;;;;;;6.80;4.70;;;11.30;66.50;;;;;;5043043;28;20028;-39
2021/09/23 03:57:35;;;;;;;6.47;4.47;;;11.30;66.30;;;;;;5043098;28;20041;-39
2021/09/23 04:00:22;;;;;;;5.65;4.30;;;11.40;66.00;;;;;;5044656;28;20068;-39
2021/09/23 04:03:06;;;;;;;6.90;4.97;;;11.30;65.90;;;;;;5046537;28;20037;-39
2021/09/23 04:05:51;;;;;;;6.90;4.82;;;11.30;66.00;;;;;;5046979;28;20025;-39
2021/09/23 04:08:35;;;;;;;7.00;4.75;;;11.30;66.10;;;;;;5046539;28;20225;-39
2021/09/23 04:11:19;;;;;;;7.25;5.07;;;11.20;66.20;;;;;;5046412;28;20061;-39
2021/09/23 04:14:04;;;;;;;9.73;4.75;;;11.30;66.10;;;;;;5046292;28;20032;-38
2021/09/23 04:16:50;;;;;;;7.55;5.13;;;11.30;66.20;;;;;;5046164;28;20032;-38
2021/09/23 04:19:34;;;;;;;7.25;4.93;;;11.30;66.20;;;;;;5046145;28;20028;-39
2021/09/23 04:22:19;;;;;;;9.13;5.22;;;11.30;66.20;;;;;;5045306;28;20040;-39
2021/09/23 04:25:03;;;;;;;8.43;5.10;;;11.20;66.20;;;;;;5046114;28;20256;-38
2021/09/23 04:27:47;;;;;;;16.55;5.32;;;11.20;66.30;;;;;;5045965;28;20080;-39
2021/09/23 04:30:32;;;;;;;8.02;5.07;;;11.20;66.30;;;;;;5045921;28;20064;-39
2021/09/23 04:33:16;;;;;;;8.48;5.00;;;11.20;66.20;;;;;;5045758;28;20052;-39
2021/09/23 04:36:00;;;;;;;9.55;5.10;;;11.10;66.20;;;;;;5046294;28;20029;-39
2021/09/23 04:38:44;;;;;;;8.23;4.65;;;11.10;66.30;;;;;;5045909;28;20080;-38
2021/09/23 04:41:28;;;;;;;8.75;5.35;;;11.10;66.30;;;;;;5045679;28;20040;-39
2021/09/23 04:44:13;;;;;;;10.48;4.80;;;11.10;66.30;;;;;;5045953;28;20072;-38
2021/09/23 04:46:57;;;;;;;7.55;5.28;;;11.10;66.40;;;;;;5046311;28;20028;-39
2021/09/23 04:49:44;;;;;;;8.85;5.32;;;11.10;66.40;;;;;;5045591;28;20032;-38
2021/09/23 04:52:28;;;;;;;6.57;4.75;;;11.00;66.40;;;;;;5045937;28;20069;-39
2021/09/23 04:55:13;;;;;;;9.35;4.97;;;11.00;66.30;;;;;;5045619;28;20060;-38
2021/09/23 04:57:59;;;;;;;6.93;4.63;;;11.00;66.40;;;;;;5045622;28;20213;-39
2021/09/23 05:00:43;;;;;;;6.97;4.82;;;11.00;66.40;;;;;;5045530;28;20075;-39
2021/09/23 05:03:27;;;;;;;12.45;4.70;;;10.90;66.40;;;;;;5045436;28;20382;-39
2021/09/23 05:06:11;;;;;;;7.38;5.00;;;10.90;66.50;;;;;;5045215;28;20025;-38
2021/09/23 05:08:55;;;;;;;7.35;4.82;;;10.90;66.50;;;;;;5045839;28;20312;-39
2021/09/23 05:11:39;;;;;;;10.38;5.03;;;10.90;66.50;;;;;;5044836;28;20168;-38
2021/09/23 05:14:24;;;;;;;6.80;4.50;;;10.90;66.60;;;;;;5045455;28;20036;-38
2021/09/23 05:17:08;;;;;;;7.28;4.97;;;10.90;66.70;;;;;;5045518;28;20224;-38
2021/09/23 05:19:52;;;;;;;8.32;5.10;;;10.90;66.70;;;;;;5045509;28;20352;-39
2021/09/23 05:22:38;;;;;;;9.00;5.07;;;10.90;66.90;;;;;;5044859;28;20043;-39
2021/09/23 05:25:22;;;;;;;8.55;5.40;;;10.90;67.00;;;;;;5044989;28;20063;-38
2021/09/23 05:28:07;;;;;;;8.00;4.82;;;11.00;67.00;;;;;;5044712;28;20084;-39
2021/09/23 05:30:51;;;;;;;7.13;5.18;;;11.00;67.10;;;;;;5044783;28;20061;-39
2021/09/23 05:33:36;;;;;;;10.48;4.75;;;11.00;67.20;;;;;;5044350;28;20340;-39
2021/09/23 05:36:20;;;;;;;9.57;4.97;;;11.10;67.20;;;;;;5044488;28;20040;-39
2021/09/23 05:39:04;;;;;;;7.82;5.15;;;11.10;67.20;;;;;;5044828;28;20032;-38
2021/09/23 05:41:49;;;;;;;9.27;5.03;;;11.00;67.50;;;;;;5044625;28;20036;-38
2021/09/23 05:44:33;;;;;;;11.10;4.90;;;11.10;67.60;;;;;;5044548;28;20348;-38
2021/09/23 05:47:17;;;;;;;7.22;4.57;;;11.10;67.70;;;;;;5043963;28;20052;-39
2021/09/23 05:50:01;;;;;;;9.73;4.88;;;11.10;68.10;;;;;;5044353;28;20229;-39
2021/09/23 05:52:46;;;;;;;12.00;4.70;;;11.10;68.30;;;;;;5044595;28;20040;-39
2021/09/23 05:55:30;;;;;;;11.48;4.45;;;11.30;68.20;;;;;;5043926;28;20036;-39
2021/09/23 05:58:14;;;;;;;7.63;4.80;;;11.30;68.00;;;;;;5044247;28;20367;-38
2021/09/23 06:00:59;;;;;;;6.35;4.60;;;11.30;68.10;;;;;;5044378;28;20171;-39
2021/09/23 06:03:43;;;;;;;7.60;5.00;;;11.30;68.70;;;;;;5044099;28;20228;-39
2021/09/23 06:06:27;;;;;;;10.02;4.78;;;11.40;68.80;;;;;;5044158;28;20334;-39
2021/09/23 06:09:11;;;;;;;11.05;5.35;;;11.50;68.50;;;;;;5043986;28;20225;-39
2021/09/23 06:11:56;;;;;;;8.43;5.00;;;11.50;68.90;;;;;;5044676;28;20020;-39
2021/09/23 06:14:40;;;;;;;9.00;5.13;;;11.60;69.00;;;;;;5044064;28;20052;-39
2021/09/23 06:17:24;;;;;;;13.25;5.05;;;11.70;69.60;;;;;;5044435;28;20086;-42
2021/09/23 06:20:09;;;;;;;11.15;5.25;;;11.80;69.30;;;;;;5044416;28;20028;-40
2021/09/23 06:22:55;;;;;;;8.18;4.72;;;11.90;69.20;;;;;;5043351;28;20037;-41
2021/09/23 06:25:39;;;;;;;10.60;5.88;;;12.10;69.00;;;;;;5044024;28;20143;-40
2021/09/23 06:28:23;;;;;;;8.80;5.15;;;12.20;69.10;;;;;;5043929;28;20295;-40
2021/09/23 06:31:07;;;;;;;9.65;5.10;;;12.30;68.90;;;;;;5043884;28;20025;-41
2021/09/23 06:33:52;;;;;;;11.30;5.15;;;12.50;69.00;;;;;;5043813;28;20032;-41
2021/09/23 06:36:36;;;;;;;8.20;4.80;;;12.70;68.60;;;;;;5043784;28;20343;-41
2021/09/23 06:39:21;;;;;;;9.32;5.10;;;12.90;68.40;;;;;;5043679;28;20025;-40
2021/09/23 06:42:05;;;;;;;6.70;4.57;;;13.30;68.00;;;;;;5043997;28;20028;-41
2021/09/23 06:44:49;;;;;;;7.93;4.40;;;13.70;66.90;;;;;;5043807;28;20036;-41
2021/09/23 06:47:34;;;;;;;6.03;4.18;;;14.10;65.90;;;;;;5044093;28;20028;-41
2021/09/23 06:50:18;;;;;;;5.95;4.20;;;14.50;64.50;;;;;;5043983;28;20037;-41
2021/09/23 06:53:02;;;;;;;6.93;3.97;;;14.90;63.30;;;;;;5043809;28;20214;-42
2021/09/23 06:55:47;;;;;;;6.72;4.18;;;15.20;62.60;;;;;;5043785;28;20097;-41
2021/09/23 06:58:31;;;;;;;5.80;3.85;;;15.70;62.00;;;;;;5043344;28;20040;-41
2021/09/23 07:01:15;;;;;;;7.90;3.92;;;16.30;60.00;;;;;;5043519;28;20386;-42
2021/09/23 07:04:00;;;;;;;7.90;3.78;;;16.50;59.70;;;;;;5043425;28;20044;-41
2021/09/23 07:06:44;;;;;;;8.93;4.30;;;16.70;59.50;;;;;;5043487;28;20037;-43
2021/09/23 07:09:29;;;;;;;7.45;4.00;;;16.90;59.00;;;;;;5043784;28;20075;-42
2021/09/23 07:12:13;;;;;;;6.93;4.18;;;17.20;58.10;;;;;;5043302;28;20021;-43
2021/09/23 07:14:57;;;;;;;5.75;3.80;;;17.30;56.90;;;;;;5043982;28;20021;-42
2021/09/23 07:17:41;;;;;;;6.90;3.95;;;17.30;57.40;;;;;;5043395;28;20040;-42
2021/09/23 07:20:26;;;;;;;11.60;4.13;;;17.20;57.90;;;;;;5043737;28;20087;-42
2021/09/23 07:23:10;;;;;;;5.78;4.00;;;17.30;57.80;;;;;;5043511;28;20052;-43
2021/09/23 07:25:54;;;;;;;8.43;4.05;;;17.30;58.20;;;;;;5043450;28;20056;-43
2021/09/23 07:28:38;;;;;;;7.80;4.30;;;17.30;57.80;;;;;;5043401;28;20032;-42
2021/09/23 07:31:23;;;;;;;7.93;4.60;;;17.40;57.40;;;;;;5043347;28;20037;-42
2021/09/23 07:34:07;;;;;;;4.85;4.00;;;17.50;57.10;;;;;;5043402;28;20378;-42
2021/09/23 07:36:51;;;;;;;6.57;4.00;;;17.70;57.30;;;;;;5046959;28;20344;-42
2021/09/23 07:39:35;;;;;;;7.68;4.30;;;17.80;57.50;;;;;;5046883;28;20044;-42
2021/09/23 07:42:20;;;;;;;6.38;4.35;;;17.90;56.50;;;;;;5046723;28;20102;-43
2021/09/23 07:45:05;;;;;;;6.80;4.40;;;17.80;56.00;;;;;;5047611;28;20097;-42
2021/09/23 07:47:49;;;;;;;6.68;4.45;;;17.80;56.40;;;;;;5046865;28;20048;-42
2021/09/23 07:50:33;;;;;;;7.78;4.57;;;17.80;56.80;;;;;;5046850;28;20057;-42
2021/09/23 07:53:18;;;;;;;7.22;4.80;;;17.80;56.90;;;;;;5047291;28;20344;-42
2021/09/23 07:56:02;;;;;;;6.60;4.60;;;17.70;56.30;;;;;;5046494;28;20113;-43
2021/09/23 07:58:46;;;;;;;6.57;4.75;;;17.90;56.70;;;;;;5045733;28;20225;-42
2021/09/23 08:01:30;;;;;;;6.63;4.78;;;17.80;56.30;;;;;;5046338;28;20040;-42
2021/09/23 08:04:15;;;;;;;9.07;4.82;;;17.80;56.70;;;;;;5046171;28;20351;-43
2021/09/23 08:06:59;;;;;;;7.47;4.43;;;17.90;56.80;;;;;;5046374;28;20033;-42
2021/09/23 08:09:45;;;;;;;6.43;4.30;;;18.20;56.50;;;;;;5046422;28;20075;-43
2021/09/23 08:12:30;;;;;;;7.85;4.07;;;18.30;56.90;;;;;;5046253;28;20165;-43
2021/09/23 08:15:14;;;;;;;4.82;3.85;;;18.60;55.40;;;;;;5046159;28;20084;-42
2021/09/23 08:17:58;;;;;;;5.38;4.03;;;18.70;55.40;;;;;;5046909;28;20393;-43
2021/09/23 08:20:42;;;;;;;5.07;3.70;;;18.60;54.90;;;;;;5046401;28;20032;-44
2021/09/23 08:23:26;;;;;;;4.32;3.63;;;18.70;55.30;;;;;;5046536;28;20036;-44
2021/09/23 08:26:10;;;;;;;5.32;3.70;;;18.70;54.20;;;;;;5046432;28;20052;-43
2021/09/23 08:28:55;;;;;;;5.53;3.97;;;18.70;55.30;;;;;;5046452;28;20048;-43
2021/09/23 08:31:40;;;;;;;4.68;3.65;;;18.70;55.80;;;;;;5046270;28;20067;-44
2021/09/23 08:34:24;;;;;;;8.88;4.07;;;18.70;55.30;;;;;;5046218;28;20064;-43
2021/09/23 08:37:08;;;;;;;4.63;3.80;;;18.70;55.80;;;;;;5046089;28;20209;-42
2021/09/23 08:39:52;;;;;;;6.25;3.53;;;18.70;56.40;;;;;;5046003;28;20073;-43
2021/09/23 08:42:38;;;;;;;8.00;4.22;;;18.80;56.80;;;;;;5045780;28;20344;-43
2021/09/23 08:45:22;;;;;;;7.80;4.40;;;18.80;56.80;;;;;;5045663;28;20033;-43
2021/09/23 08:48:07;;;;;;;6.57;4.05;;;18.90;56.30;;;;;;5044994;28;20033;-43
2021/09/23 08:50:51;;;;;;;6.53;3.38;;;18.80;55.10;;;;;;5045131;28;20044;-44
2021/09/23 08:53:36;;;;;;;6.10;3.67;;;18.90;55.50;;;;;;5045684;28;20032;-43
2021/09/23 08:56:21;;;;;;;4.78;3.10;;;19.00;55.70;;;;;;5046007;28;20037;-45
2021/09/23 08:59:07;;;;;;;4.43;3.10;;;19.00;55.00;;;;;;5046181;28;20036;-42
2021/09/23 09:01:51;;;;;;;7.43;3.50;;;19.10;55.60;;;;;;5045679;28;20390;-44
2021/09/23 09:04:35;;;;;;;5.53;3.47;;;19.20;55.50;;;;;;5045774;28;20066;-43
2021/09/23 09:07:30;;;;;;;4.30;3.20;;;19.30;54.80;;;;;;5045413;28;20272;-43
2021/09/23 09:10:14;;;;;;;7.18;3.20;;;19.30;53.40;;;;;;5045442;28;20036;-43
2021/09/23 09:13:00;;;;;;;4.75;3.13;;;19.30;53.10;;;;;;5045229;28;20072;-43
2021/09/23 09:15:45;;;;;;;6.85;3.25;;;19.40;52.50;;;;;;5045318;28;20097;-44
2021/09/23 09:18:29;;;;;;;4.47;3.10;;;19.50;52.30;;;;;;5045268;28;20040;-43
2021/09/23 09:21:15;;;;;;;5.30;3.00;;;19.60;52.40;;;;;;5044948;28;20064;-43
2021/09/23 09:24:00;;;;;;;4.07;3.03;;;19.80;54.40;;;;;;5045183;28;20032;-42
2021/09/23 09:26:44;;;;;;;5.15;3.50;;;19.90;54.20;;;;;;5045032;28;20105;-42
2021/09/23 09:29:28;;;;;;;4.18;2.85;;;19.90;53.10;;;;;;5044700;28;20044;-41
2021/09/23 09:32:13;;;;;;;5.65;3.22;;;20.10;53.90;;;;;;5030351;28;20036;-42
2021/09/23 09:34:58;;;;;;;9.07;2.88;;;20.30;54.50;;;;;;5044150;28;20040;-41
2021/09/23 09:37:44;;;;;;;6.20;2.92;;;20.50;54.00;;;;;;5044755;28;20095;-41
2021/09/23 09:40:34;;;;;;;4.28;2.83;;;20.60;54.20;;;;;;5045015;28;20040;-41
2021/09/23 09:43:18;;;;;;;5.72;3.08;;;20.70;51.60;;;;;;5045261;28;20044;-41
2021/09/23 09:46:03;;;;;;;4.88;3.00;;;20.80;50.00;;;;;;5044608;28;20350;-41
2021/09/23 09:48:47;;;;;;;3.90;2.90;;;20.80;49.50;;;;;;5044697;28;20048;-41
2021/09/23 09:51:46;;;;;;;4.00;2.72;;;20.80;49.20;;;;;;5044450;28;20202;-41
2021/09/23 09:54:31;;;;;;;5.28;2.80;;;20.90;49.60;;;;;;5044464;28;20299;-41
2021/09/23 09:57:15;;;;;;;4.25;2.63;;;21.00;49.10;;;;;;5043408;28;20128;-41
2021/09/23 09:59:59;;;;;;;169.88;12.23;;;21.20;49.60;;;;;;5029984;28;20024;-44
2021/09/23 10:02:44;;;;;;;4.22;2.58;;;21.30;48.90;;;;;;5044301;28;20076;-43
2021/09/23 10:05:28;;;;;;;4.13;2.83;;;21.50;49.30;;;;;;5044155;28;20169;-44
2021/09/23 10:08:12;;;;;;;3.97;2.55;;;21.80;48.80;;;;;;5044773;28;20064;-46
2021/09/23 10:10:56;;;;;;;4.03;3.03;;;22.00;48.20;;;;;;5029210;28;20391;-44
2021/09/23 10:13:40;;;;;;;8.18;2.55;;;22.10;48.20;;;;;;5043989;28;20052;-52
2021/09/23 10:16:24;;;;;;;5.20;2.53;;;22.30;46.90;;;;;;5029179;28;20087;-45
2021/09/23 10:19:09;;;;;;;4.78;2.58;;;22.40;47.20;;;;;;5043932;28;20064;-45
2021/09/23 10:21:53;;;;;;;3.60;2.22;;;22.40;45.10;;;;;;5043845;28;20367;-45
2021/09/23 10:24:38;;;;;;;3.00;2.35;;;22.50;44.40;;;;;;5043748;28;20060;-45
2021/09/23 10:30:30;;;;;;;4.82;2.55;;;22.70;45.00;;;;;;5043014;28;20037;-45
2021/09/23 10:33:14;;;;;;;4.07;2.38;;;22.80;45.00;;;;;;5043649;28;20133;-44
2021/09/23 10:35:58;;;;;;;4.25;2.47;;;23.00;45.20;;;;;;5044524;28;20076;-59
2021/09/23 10:38:42;;;;;;;3.22;2.40;;;23.10;43.10;;;;;;5043844;28;20060;-59
2021/09/23 10:41:27;;;;;;;4.55;2.40;;;23.30;43.50;;;;;;5043775;28;20036;-59
2021/09/23 10:44:11;;;;;;;8.05;2.20;;;23.60;42.80;;;;;;5043987;28;20071;-59
2021/09/23 10:46:56;;;;;;;6.90;2.45;;;23.60;44.70;;;;;;5043091;28;20024;-59
2021/09/23 10:49:41;;;;;;;4.60;2.20;;;23.80;44.00;;;;;;5042852;28;20381;-59
2021/09/23 10:52:26;;;;;;;5.65;1.95;;;24.00;45.10;;;;;;5029092;28;20037;-59
2021/09/23 10:55:10;;;;;;;4.75;2.03;;;24.30;43.70;;;;;;5043622;28;20109;-58
2021/09/23 10:57:54;;;;;;;3.17;1.90;;;24.40;44.00;;;;;;5043565;28;20052;-59
2021/09/23 11:00:38;;;;;;;5.85;2.20;;;24.80;44.00;;;;;;5042700;28;20037;-58
2021/09/23 11:03:39;;;;;;;3.30;1.85;;;24.90;42.70;;;;;;5043266;28;20035;-58
2021/09/23 11:06:34;;;;;;;3.53;1.85;;;25.20;41.40;;;;;;5042557;28;20032;-59
2021/09/23 11:09:22;;;;;;;6.35;1.88;;;25.30;41.00;;;;;;5037283;28;20089;-58
2021/09/23 11:12:07;;;;;;;3.28;1.85;;;25.40;41.40;;;;;;5047703;28;20064;-59
2021/09/23 11:14:52;;;;;;;3.60;1.80;;;25.50;38.90;;;;;;5032540;28;20040;-59
2021/09/23 11:17:36;;;;;;;5.80;1.88;;;25.70;39.00;;;;;;5047031;28;20052;-59
2021/09/23 11:20:21;;;;;;;2.90;1.98;;;25.80;37.30;;;;;;5047479;28;20040;-59
2021/09/23 11:23:07;;;;;;;2.63;1.88;;;25.70;37.70;;;;;;5046783;28;20033;-59
2021/09/23 11:25:52;;;;;;;2.40;1.60;;;25.80;37.90;;;;;;5047385;28;20305;-59
2021/09/23 11:28:36;;;;;;;2.53;1.85;;;25.50;38.10;;;;;;5047870;28;20076;-59
2021/09/23 11:31:20;;;;;;;4.32;1.70;;;25.70;38.30;;;;;;5033115;28;20376;-59
2021/09/23 11:34:04;;;;;;;2.65;1.77;;;25.80;39.80;;;;;;5046734;28;20080;-59
2021/09/23 11:36:53;;;;;;;3.65;1.70;;;25.60;36.90;;;;;;5046847;28;20055;-59
2021/09/23 11:39:42;;;;;;;3.50;1.88;;;25.80;40.20;;;;;;5045930;28;20036;-59
2021/09/23 11:42:31;;;;;;;2.85;1.70;;;25.80;38.60;;;;;;5032529;28;20445;-59
2021/09/23 11:45:16;;;;;;;4.22;1.80;;;25.80;37.90;;;;;;5046674;28;20020;-58
2021/09/23 11:48:09;;;;;;;2.33;1.70;;;26.00;38.70;;;;;;5047103;28;20084;-58
2021/09/23 11:51:08;;;;;;;2.20;1.70;;;26.00;40.20;;;;;;5046811;28;20036;-59
2021/09/23 11:53:55;;;;;;;2.55;1.80;;;26.20;39.50;;;;;;5046734;28;20040;-59
2021/09/23 11:56:42;;;;;;;3.60;1.70;;;26.30;39.30;;;;;;5046782;28;20039;-59
2021/09/23 11:59:28;;;;;;;2.40;1.90;;;26.30;39.80;;;;;;5046926;28;20217;-59
2021/09/23 12:02:18;;;;;;;2.88;1.70;;;26.30;38.00;;;;;;5046984;28;20347;-59
2021/09/23 12:05:02;;;;;;;3.63;1.95;;;26.30;37.90;;;;;;5046827;28;20040;-59
2021/09/23 12:07:46;;;;;;;2.42;1.88;;;26.30;37.60;;;;;;5046374;28;20028;-59
2021/09/23 12:10:31;;;;;;;3.38;1.83;;;26.40;39.50;;;;;;5046608;28;20037;-59
2021/09/23 12:13:22;;;;;;;2.97;1.80;;;26.40;40.70;;;;;;5046242;28;20213;-59
2021/09/23 12:16:24;;;;;;;3.58;2.08;;;26.50;40.60;;;;;;5046267;28;20036;-59
2021/09/23 12:19:15;;;;;;;3.95;1.90;;;26.70;38.70;;;;;;5045961;28;20032;-59
2021/09/23 12:22:00;;;;;;;;;;;26.70;38.70;;;;;;5045808;28;20036;-59
2021/09/23 12:24:46;;;;;;;3.33;2.13;;;26.60;37.50;;;;;;5046800;28;19923;-59
2021/09/23 12:27:30;;;;;;;4.03;1.83;;;26.70;39.50;;;;;;5046053;28;20139;-59
2021/09/23 12:30:14;;;;;;;4.07;1.67;;;26.70;39.50;;;;;;5046078;28;20024;-57
2021/09/23 12:33:02;;;;;;;2.50;1.80;;;26.70;39.50;;;;;;5045608;28;20033;-59
2021/09/23 12:35:47;;;;;;;2.47;1.70;;;26.70;39.20;;;;;;5046026;28;20040;-59
2021/09/23 12:38:31;;;;;;;3.80;1.55;;;26.70;39.10;;;;;;5046537;28;20070;-59
2021/09/23 12:41:22;;;;;;;2.90;1.80;;;26.70;39.70;;;;;;5046476;28;20028;-59
2021/09/23 12:44:07;;;;;;;4.15;1.80;;;26.70;37.40;;;;;;5045763;28;20107;-59
2021/09/23 12:47:02;;;;;;;4.95;1.70;;;26.70;39.80;;;;;;5045580;28;20040;-59
2021/09/23 12:49:49;;;;;;;2.33;1.70;;;26.70;40.20;;;;;;5045641;28;20039;-59
2021/09/23 12:52:33;;;;;;;3.08;2.00;;;26.70;40.40;;;;;;5045533;28;20217;-59
2021/09/23 12:55:26;;;;;;;2.95;1.70;;;26.70;40.00;;;;;;5044840;28;20044;-59
2021/09/23 12:58:18;;;;;;;9.02;1.77;;;26.70;37.30;;;;;;5045481;28;20075;-59
2021/09/23 13:01:19;;;;;;;4.75;1.90;;;26.60;38.30;;;;;;5045462;28;20331;-57
2021/09/23 13:04:03;;;;;;;6.40;1.57;;;26.60;38.80;;;;;;5045483;28;20040;-56
2021/09/23 13:06:47;;;;;;;2.40;1.45;;;26.60;39.10;;;;;;5044446;28;20048;-59
2021/09/23 13:09:31;;;;;;;4.70;1.67;;;26.50;39.40;;;;;;5045332;28;20038;-59
2021/09/23 13:12:16;;;;;;;2.92;1.90;;;26.50;38.30;;;;;;5045091;28;20352;-58
2021/09/23 13:15:00;;;;;;;2.88;1.70;;;26.40;38.70;;;;;;5045564;28;20025;-59
2021/09/23 13:18:09;;;;;;;2.97;1.77;;;26.30;38.00;;;;;;5045187;28;20345;-59
2021/09/23 13:20:57;;;;;;;2.50;1.65;;;26.30;36.90;;;;;;5044427;28;20064;-62
2021/09/23 13:23:43;;;;;;;2.70;1.60;;;26.30;40.00;;;;;;5044876;28;20040;-61
2021/09/23 13:26:27;;;;;;;4.70;1.58;;;26.30;39.10;;;;;;5045372;28;20233;-62
2021/09/23 13:29:12;;;;;;;2.65;1.70;;;26.20;40.00;;;;;;5044186;28;20108;-62
2021/09/23 13:31:56;;;;;;;13.18;1.80;;;26.20;39.30;;;;;;5044515;28;20056;-62
2021/09/23 13:34:40;;;;;;;2.50;1.70;;;26.20;38.80;;;;;;5044945;28;20127;-62
2021/09/23 13:37:24;;;;;;;2.75;1.80;;;26.20;40.60;;;;;;5044911;28;20071;-62
2021/09/23 13:40:09;;;;;;;3.45;1.73;;;26.20;39.70;;;;;;5044762;28;20383;-61
2021/09/23 13:42:54;;;;;;;3.83;1.55;;;26.10;40.50;;;;;;5043645;28;20060;-61
2021/09/23 13:45:38;;;;;;;4.20;1.20;;;26.00;40.00;;;;;;5044489;28;20072;-62
2021/09/23 13:48:28;;;;;;;2.28;1.70;;;26.00;40.50;;;;;;5044304;28;20080;-61
2021/09/23 13:51:14;;;;;;;3.75;1.60;;;26.00;40.20;;;;;;5044934;28;20210;-62
2021/09/23 13:53:58;;;;;;;3.30;1.83;;;26.00;39.20;;;;;;5044422;28;20397;-62
2021/09/23 13:56:42;;;;;;;4.10;1.75;;;25.80;39.80;;;;;;5044399;28;20226;-62
2021/09/23 13:59:26;;;;;;;2.58;1.52;;;25.80;40.30;;;;;;5044773;28;20037;-61
2021/09/23 14:02:11;;;;;;;2.60;1.80;;;25.80;40.30;;;;;;5044525;28;20033;-61
2021/09/23 14:04:55;;;;;;;4.25;2.00;;;25.80;41.10;;;;;;5044207;28;20048;-61
2021/09/23 14:07:40;;;;;;;13.05;3.00;;;25.80;41.30;;;;;;5044341;28;20052;-59
2021/09/23 14:10:24;;;;;;;6.97;2.30;;;25.80;41.60;;;;;;5044290;28;20089;-59
2021/09/23 14:13:08;;;;;;;4.18;1.70;;;25.70;40.30;;;;;;5044336;28;20089;-61
2021/09/23 14:15:52;;;;;;;2.78;1.80;;;25.60;39.90;;;;;;5044128;28;20048;-61
2021/09/23 14:18:37;;;;;;;3.85;1.42;;;25.60;39.20;;;;;;5043985;28;20104;-62
2021/09/23 14:21:21;;;;;;;3.42;2.10;;;25.60;39.90;;;;;;5043710;28;20024;-61